Time;durP1;ratioP1;P1;durP2;ratioP2;P2;SDS_P1;SDS_P2;PMS_P1;PMS_P2;Temp;Humidity;BMP_temperature;BMP_pressure;BME280_temperature;BME280_humidity;BME280_pressure;Samples;Min_cycle;Max_cycle;Signal;HPM_P1;HPM_P2
2023/10/21 00:02:24;;;;;;;21.17;12.47;;;7.20;99.90;;;;;;5135280;28;20210;-80
2023/10/21 00:04:53;;;;;;;19.40;11.87;;;7.10;99.90;;;;;;5134171;28;20200;-80
2023/10/21 00:07:19;;;;;;;18.93;12.37;;;7.00;99.90;;;;;;5120251;28;20205;-80
2023/10/21 00:09:46;;;;;;;22.87;12.43;;;6.90;99.90;;;;;;5138275;28;20230;-80
2023/10/21 00:12:13;;;;;;;21.23;12.77;;;7.00;99.90;;;;;;5138986;28;20207;-80
2023/10/21 00:14:40;;;;;;;22.23;13.37;;;7.20;99.90;;;;;;5129910;28;20197;-80
2023/10/21 00:17:06;;;;;;;20.93;12.50;;;7.40;99.90;;;;;;5136956;28;20208;-80
2023/10/21 00:19:34;;;;;;;17.20;11.70;;;7.40;99.90;;;;;;5129823;27;20227;-80
2023/10/21 00:22:03;;;;;;;21.07;12.17;;;7.30;99.90;;;;;;5142441;27;20207;-80
2023/10/21 00:24:30;;;;;;;17.77;11.20;;;7.30;99.90;;;;;;5135378;27;20212;-80
2023/10/21 00:26:56;;;;;;;18.10;12.13;;;7.30;99.90;;;;;;5128708;27;20203;-80
2023/10/21 00:29:23;;;;;;;21.27;11.83;;;7.10;99.90;;;;;;5131383;27;20216;-79
2023/10/21 00:31:50;;;;;;;19.17;11.50;;;6.90;99.90;;;;;;5128515;27;20200;-80
2023/10/21 00:34:17;;;;;;;18.70;12.23;;;6.80;99.90;;;;;;5122917;27;20200;-80
2023/10/21 00:36:44;;;;;;;21.20;12.43;;;6.90;99.90;;;;;;5141247;27;20204;-79
2023/10/21 00:39:12;;;;;;;21.33;12.73;;;6.70;99.90;;;;;;5134190;27;20232;-80
2023/10/21 00:41:39;;;;;;;28.73;15.70;;;7.00;99.90;;;;;;5127119;27;20205;-80
2023/10/21 00:44:06;;;;;;;26.17;15.03;;;7.10;99.90;;;;;;5137275;27;20672;-80
2023/10/21 00:46:32;;;;;;;24.97;15.17;;;7.10;99.90;;;;;;5138745;27;20241;-80
2023/10/21 00:49:00;;;;;;;24.80;15.33;;;7.10;99.90;;;;;;5121513;27;20238;-80
2023/10/21 00:51:27;;;;;;;24.07;14.00;;;7.10;99.90;;;;;;5128685;27;20576;-80
2023/10/21 00:53:56;;;;;;;22.00;14.23;;;7.00;99.90;;;;;;5138336;27;20225;-80
2023/10/21 00:56:24;;;;;;;23.87;14.30;;;6.90;99.90;;;;;;5127221;27;20557;-80
2023/10/21 00:58:51;;;;;;;34.23;13.83;;;6.90;99.90;;;;;;5132651;27;20235;-80
2023/10/21 01:01:18;;;;;;;29.13;15.80;;;6.70;99.90;;;;;;5127818;27;20219;-79
2023/10/21 01:03:45;;;;;;;25.10;14.73;;;6.60;99.90;;;;;;5134660;27;20197;-79
2023/10/21 01:06:12;;;;;;;25.93;15.33;;;6.70;99.90;;;;;;5134233;27;20654;-80
2023/10/21 01:08:42;;;;;;;27.90;15.93;;;6.60;99.90;;;;;;5133862;27;20216;-80
2023/10/21 01:11:09;;;;;;;27.43;15.57;;;6.80;99.90;;;;;;5133608;27;20588;-79
2023/10/21 01:13:37;;;;;;;27.07;15.57;;;6.90;99.90;;;;;;5126199;27;20211;-80
2023/10/21 01:16:04;;;;;;;25.50;14.60;;;6.80;99.90;;;;;;5125809;27;20200;-80
2023/10/21 01:18:33;;;;;;;25.87;14.83;;;6.90;99.90;;;;;;5130462;27;20217;-80
2023/10/21 01:21:01;;;;;;;37.63;14.23;;;6.90;99.90;;;;;;5124694;27;20204;-80
2023/10/21 01:23:30;;;;;;;22.23;14.47;;;6.90;99.90;;;;;;5128303;27;20254;-80
2023/10/21 01:25:56;;;;;;;30.30;14.30;;;6.90;99.90;;;;;;5141393;27;20200;-80
2023/10/21 01:28:23;;;;;;;29.23;15.77;;;6.90;99.90;;;;;;5136968;27;20614;-80
2023/10/21 01:30:50;;;;;;;42.43;14.20;;;6.90;99.90;;;;;;5130047;27;20217;-80
2023/10/21 01:33:17;;;;;;;23.10;14.30;;;6.80;99.90;;;;;;5134261;27;20207;-80
2023/10/21 01:35:44;;;;;;;24.37;14.10;;;6.90;99.90;;;;;;5136422;27;20201;-80
2023/10/21 01:38:11;;;;;;;24.97;14.50;;;7.00;99.90;;;;;;5136418;27;20197;-80
2023/10/21 01:40:39;;;;;;;25.27;13.77;;;7.00;99.90;;;;;;5132409;27;20228;-80
2023/10/21 01:43:05;;;;;;;20.97;13.03;;;7.00;99.90;;;;;;5141042;27;20206;-80
2023/10/21 01:45:34;;;;;;;20.43;12.73;;;7.10;99.90;;;;;;5134614;27;20202;-79
2023/10/21 01:48:01;;;;;;;20.23;13.10;;;7.10;99.90;;;;;;5133455;27;20577;-80
2023/10/21 01:50:28;;;;;;;21.23;12.63;;;7.10;99.90;;;;;;5133328;27;20717;-80
2023/10/21 01:52:55;;;;;;;19.17;12.67;;;7.10;99.90;;;;;;5131833;27;20203;-80
2023/10/21 01:55:22;;;;;;;19.00;11.70;;;7.10;99.90;;;;;;5141596;27;20701;-80
2023/10/21 01:57:50;;;;;;;18.50;12.33;;;7.10;99.90;;;;;;5130031;27;20203;-80
2023/10/21 02:00:20;;;;;;;18.57;11.63;;;7.10;99.90;;;;;;5133967;27;20601;-80
2023/10/21 02:02:50;;;;;;;18.73;12.30;;;7.10;99.90;;;;;;5136795;27;20284;-81
2023/10/21 02:05:17;;;;;;;19.53;12.50;;;7.10;99.90;;;;;;5132592;27;20214;-80
2023/10/21 02:07:44;;;;;;;17.67;11.33;;;7.10;99.90;;;;;;5132678;27;20205;-80
2023/10/21 02:10:11;;;;;;;20.43;12.77;;;7.20;99.90;;;;;;5139937;27;20219;-80
2023/10/21 02:12:38;;;;;;;19.27;12.00;;;7.20;99.90;;;;;;5139925;27;20204;-79
2023/10/21 02:15:11;;;;;;;20.03;11.70;;;7.20;99.90;;;;;;5132624;27;20202;-80
2023/10/21 02:17:38;;;;;;;20.20;11.60;;;7.20;99.90;;;;;;5131627;27;20268;-79
2023/10/21 02:20:06;;;;;;;19.23;11.60;;;7.30;99.90;;;;;;5131908;27;20235;-80
2023/10/21 02:22:33;;;;;;;19.60;12.03;;;7.40;99.90;;;;;;5131848;27;20311;-79
2023/10/21 02:25:00;;;;;;;19.63;12.57;;;7.50;99.90;;;;;;5124510;27;20203;-79
2023/10/21 02:27:28;;;;;;;21.67;13.57;;;7.60;99.90;;;;;;5140026;27;20629;-80
2023/10/21 02:29:55;;;;;;;22.33;13.77;;;7.70;99.90;;;;;;5135088;27;20747;-80
2023/10/21 02:32:23;;;;;;;23.80;14.47;;;7.70;99.90;;;;;;5127606;27;20193;-80
2023/10/21 02:34:53;;;;;;;23.50;13.43;;;7.80;99.90;;;;;;5129985;27;20201;-79
2023/10/21 02:37:20;;;;;;;25.33;13.57;;;7.80;99.90;;;;;;5134504;27;20211;-80
2023/10/21 02:39:47;;;;;;;22.40;13.93;;;7.80;99.90;;;;;;5129435;27;20688;-80
2023/10/21 02:42:14;;;;;;;23.23;14.30;;;7.80;99.90;;;;;;5133025;27;20246;-80
2023/10/21 02:44:41;;;;;;;24.97;14.37;;;7.80;99.90;;;;;;5135482;27;20215;-80
2023/10/21 02:47:08;;;;;;;22.93;14.57;;;7.80;99.90;;;;;;5134713;27;20208;-80
2023/10/21 02:49:36;;;;;;;23.13;13.43;;;7.90;99.90;;;;;;5119885;27;20217;-80
2023/10/21 02:52:03;;;;;;;22.63;13.60;;;7.80;99.90;;;;;;5118925;28;20213;-81
2023/10/21 02:54:30;;;;;;;23.90;14.50;;;8.00;99.90;;;;;;5129577;27;20208;-80
2023/10/21 02:56:57;;;;;;;22.87;14.17;;;8.00;99.90;;;;;;5131705;27;20258;-80
2023/10/21 02:59:24;;;;;;;23.83;14.53;;;7.90;99.90;;;;;;5132560;27;20228;-80
2023/10/21 03:01:51;;;;;;;24.30;14.67;;;7.90;99.90;;;;;;5134940;27;20234;-80
2023/10/21 03:04:17;;;;;;;24.20;14.57;;;8.00;99.90;;;;;;5129201;27;20204;-81
2023/10/21 03:06:46;;;;;;;24.73;14.80;;;8.10;99.90;;;;;;5128593;27;20200;-80
2023/10/21 03:09:15;;;;;;;24.80;14.23;;;8.00;99.90;;;;;;5137316;27;20281;-80
2023/10/21 03:11:42;;;;;;;25.10;15.23;;;8.00;99.90;;;;;;5129059;27;20213;-80
2023/10/21 03:14:09;;;;;;;24.17;15.57;;;8.00;99.90;;;;;;5132429;27;20219;-80
2023/10/21 03:16:37;;;;;;;25.37;15.77;;;8.10;99.90;;;;;;5125508;27;20211;-79
2023/10/21 03:19:04;;;;;;;24.23;14.90;;;8.10;99.90;;;;;;5136606;27;20226;-79
2023/10/21 03:21:31;;;;;;;24.13;15.03;;;8.00;99.90;;;;;;5134825;27;20200;-80
2023/10/21 03:23:59;;;;;;;23.63;14.97;;;8.10;99.90;;;;;;5132232;27;20201;-81
2023/10/21 03:26:26;;;;;;;23.63;14.80;;;8.20;99.90;;;;;;5132839;27;20574;-80
2023/10/21 03:28:53;;;;;;;23.80;14.47;;;8.20;99.90;;;;;;5134275;27;20235;-80
2023/10/21 03:31:21;;;;;;;22.20;14.53;;;8.20;99.90;;;;;;5133495;28;20214;-80
2023/10/21 03:33:48;;;;;;;21.87;14.10;;;8.20;99.90;;;;;;5124907;28;20204;-80
2023/10/21 03:36:14;;;;;;;23.00;14.57;;;8.20;99.90;;;;;;5129996;28;20682;-80
2023/10/21 03:38:42;;;;;;;22.27;13.87;;;8.20;99.90;;;;;;5133545;28;20759;-81
2023/10/21 03:41:12;;;;;;;22.57;14.23;;;8.30;99.90;;;;;;5135852;27;20219;-80
2023/10/21 03:43:39;;;;;;;23.03;14.13;;;8.40;99.90;;;;;;5136816;28;20738;-80
2023/10/21 03:46:08;;;;;;;24.17;14.30;;;8.30;99.90;;;;;;5136062;28;20196;-80
2023/10/21 03:48:35;;;;;;;23.30;14.37;;;8.40;99.90;;;;;;5126237;28;20200;-80
2023/10/21 03:51:05;;;;;;;21.77;14.40;;;8.30;99.90;;;;;;5127825;28;20199;-80
2023/10/21 03:53:32;;;;;;;23.07;14.37;;;8.40;99.90;;;;;;5130401;27;20197;-80
2023/10/21 03:55:59;;;;;;;23.80;15.07;;;8.50;99.90;;;;;;5131194;27;20200;-80
2023/10/21 03:58:27;;;;;;;22.30;14.40;;;8.60;99.90;;;;;;5131040;27;20692;-80
2023/10/21 04:00:56;;;;;;;22.33;13.77;;;8.50;99.90;;;;;;5137019;27;20232;-80
2023/10/21 04:03:24;;;;;;;24.17;14.83;;;8.60;99.90;;;;;;5128462;27;20236;-80
2023/10/21 04:05:51;;;;;;;21.60;13.93;;;8.60;99.90;;;;;;5134539;27;20204;-80
2023/10/21 04:08:18;;;;;;;22.00;13.57;;;8.60;99.90;;;;;;5127064;27;20200;-80
2023/10/21 04:10:45;;;;;;;24.60;14.20;;;8.60;99.90;;;;;;5137497;27;20683;-80
2023/10/21 04:13:12;;;;;;;21.27;14.20;;;8.60;99.90;;;;;;5140616;27;20249;-80
2023/10/21 04:15:41;;;;;;;28.13;14.57;;;8.70;99.90;;;;;;5127089;27;20205;-80
2023/10/21 04:18:07;;;;;;;21.50;14.57;;;8.70;99.90;;;;;;5136148;27;20205;-80
2023/10/21 04:20:34;;;;;;;22.93;14.30;;;8.70;99.90;;;;;;5120644;27;20236;-79
2023/10/21 04:23:02;;;;;;;24.17;15.33;;;8.70;99.90;;;;;;5128752;27;20212;-80
2023/10/21 04:25:29;;;;;;;24.67;15.13;;;8.70;99.90;;;;;;5135344;27;20200;-80
2023/10/21 04:27:56;;;;;;;21.73;13.30;;;8.80;99.90;;;;;;5138258;27;20204;-80
2023/10/21 04:30:23;;;;;;;22.83;14.30;;;8.80;99.90;;;;;;5136864;27;20223;-80
2023/10/21 04:32:51;;;;;;;20.90;13.47;;;8.80;99.90;;;;;;5138657;27;20253;-80
2023/10/21 04:35:18;;;;;;;20.00;13.17;;;8.90;99.90;;;;;;5125824;27;20212;-80
2023/10/21 04:37:45;;;;;;;21.33;13.17;;;8.80;99.90;;;;;;5130154;27;20228;-80
2023/10/21 04:40:13;;;;;;;19.43;12.33;;;8.90;99.90;;;;;;5131076;27;20232;-80
2023/10/21 04:42:40;;;;;;;19.47;12.57;;;8.90;99.90;;;;;;5139594;27;20204;-80
2023/10/21 04:45:08;;;;;;;20.63;13.30;;;8.90;99.90;;;;;;5138033;27;20576;-80
2023/10/21 04:47:34;;;;;;;19.77;12.57;;;8.80;99.90;;;;;;5138147;27;20275;-81
2023/10/21 04:50:04;;;;;;;20.03;13.23;;;8.80;99.90;;;;;;5127510;27;20220;-80
2023/10/21 04:52:30;;;;;;;21.13;13.47;;;9.00;99.90;;;;;;5128237;27;20232;-80
2023/10/21 04:54:57;;;;;;;19.40;12.63;;;9.00;99.90;;;;;;5133639;27;20211;-80
2023/10/21 04:57:24;;;;;;;20.93;13.57;;;9.00;99.90;;;;;;5135658;27;20212;-80
2023/10/21 04:59:51;;;;;;;20.07;12.77;;;9.00;99.90;;;;;;5138822;27;20600;-80
2023/10/21 05:02:18;;;;;;;18.00;11.77;;;9.00;99.90;;;;;;5139617;27;20206;-80
2023/10/21 05:04:45;;;;;;;18.43;12.73;;;9.10;99.90;;;;;;5129865;27;20207;-80
2023/10/21 05:07:13;;;;;;;18.23;12.87;;;9.00;99.90;;;;;;5132219;27;20248;-80
2023/10/21 05:09:40;;;;;;;16.57;11.57;;;9.00;99.90;;;;;;5129407;27;20227;-80
2023/10/21 05:12:10;;;;;;;19.50;12.40;;;8.90;99.90;;;;;;5136009;27;20204;-80
2023/10/21 05:14:37;;;;;;;20.27;12.60;;;8.80;99.90;;;;;;5128042;27;20204;-80
2023/10/21 05:17:05;;;;;;;21.43;13.07;;;8.80;99.90;;;;;;5128335;27;20205;-80
2023/10/21 05:19:32;;;;;;;21.77;14.17;;;8.90;99.90;;;;;;5134392;27;20220;-80
2023/10/21 05:21:59;;;;;;;22.03;14.03;;;8.90;99.90;;;;;;5131891;27;20571;-79
2023/10/21 05:24:27;;;;;;;25.30;15.67;;;9.00;99.90;;;;;;5129906;27;20243;-80
2023/10/21 05:26:54;;;;;;;23.83;15.20;;;8.90;99.90;;;;;;5133457;27;20201;-80
2023/10/21 05:29:20;;;;;;;24.70;15.23;;;9.00;99.90;;;;;;5125386;27;20217;-80
2023/10/21 05:31:49;;;;;;;24.93;15.77;;;9.00;99.90;;;;;;5131534;27;20267;-80
2023/10/21 05:34:18;;;;;;;23.83;16.10;;;9.20;99.90;;;;;;5132707;27;20204;-80
2023/10/21 05:36:45;;;;;;;22.77;14.93;;;9.20;99.90;;;;;;5131433;27;20213;-81
2023/10/21 05:39:12;;;;;;;22.37;13.87;;;9.10;99.90;;;;;;5123791;27;20249;-80
2023/10/21 05:41:41;;;;;;;22.17;15.00;;;9.20;99.90;;;;;;5131608;27;20224;-80
2023/10/21 05:44:08;;;;;;;20.27;13.60;;;9.40;99.90;;;;;;5137513;27;20214;-80
2023/10/21 05:46:35;;;;;;;20.43;13.87;;;9.30;99.90;;;;;;5138844;27;20251;-80
2023/10/21 05:49:02;;;;;;;20.77;13.63;;;9.30;99.90;;;;;;5133188;27;20224;-80
2023/10/21 05:51:29;;;;;;;22.30;13.70;;;9.20;99.90;;;;;;5138202;27;20211;-80
2023/10/21 05:53:57;;;;;;;19.90;12.80;;;9.20;99.90;;;;;;5132700;27;20204;-80
2023/10/21 05:56:24;;;;;;;19.67;13.60;;;9.30;99.90;;;;;;5135590;27;20249;-80
2023/10/21 05:58:52;;;;;;;21.30;13.13;;;9.20;99.90;;;;;;5126434;27;20231;-80
2023/10/21 06:01:19;;;;;;;19.90;13.07;;;9.20;99.90;;;;;;5137690;27;20238;-80
2023/10/21 06:03:45;;;;;;;27.27;14.83;;;9.20;99.90;;;;;;5129104;27;20200;-81
2023/10/21 06:06:12;;;;;;;21.13;14.30;;;9.10;99.90;;;;;;5137937;27;20226;-81
2023/10/21 06:08:39;;;;;;;21.50;14.20;;;9.20;99.90;;;;;;5138416;27;20291;-81
2023/10/21 06:11:08;;;;;;;20.97;14.17;;;9.20;99.90;;;;;;5133900;27;20685;-81
2023/10/21 06:13:34;;;;;;;21.27;13.10;;;9.20;99.90;;;;;;5137850;27;20204;-81
2023/10/21 06:16:03;;;;;;;21.23;12.73;;;9.20;99.90;;;;;;5129720;27;20207;-81
2023/10/21 06:18:29;;;;;;;20.80;13.10;;;9.20;99.90;;;;;;5135844;27;20198;-80
2023/10/21 06:20:56;;;;;;;20.20;13.17;;;9.30;99.90;;;;;;5123853;27;20216;-81
2023/10/21 06:23:23;;;;;;;18.00;12.63;;;9.30;99.90;;;;;;5134326;27;20201;-80
2023/10/21 06:25:50;;;;;;;18.63;12.57;;;9.20;99.90;;;;;;5129746;27;20204;-81
2023/10/21 06:28:17;;;;;;;17.90;11.77;;;9.30;99.90;;;;;;5133616;27;20219;-81
2023/10/21 06:30:44;;;;;;;17.37;12.13;;;9.30;99.90;;;;;;5133306;27;20245;-81
2023/10/21 06:33:13;;;;;;;22.53;13.47;;;9.20;99.90;;;;;;5128136;27;20288;-79
2023/10/21 06:35:41;;;;;;;18.80;12.37;;;9.20;99.90;;;;;;5138568;27;20367;-80
2023/10/21 06:38:08;;;;;;;19.33;12.67;;;9.30;99.90;;;;;;5137812;27;20771;-80
2023/10/21 06:40:35;;;;;;;19.50;13.00;;;9.40;99.90;;;;;;5130293;27;20349;-81
2023/10/21 06:43:02;;;;;;;20.03;13.90;;;9.50;99.90;;;;;;5132841;27;20693;-79
2023/10/21 06:45:29;;;;;;;20.00;13.33;;;9.60;99.90;;;;;;5129489;27;20209;-79
2023/10/21 06:48:04;;;;;;;19.83;13.17;;;9.60;99.90;;;;;;5125648;27;20737;-81
2023/10/21 06:50:32;;;;;;;19.63;13.03;;;9.60;99.90;;;;;;5127393;27;20247;-80
2023/10/21 06:52:59;;;;;;;20.27;13.97;;;9.70;99.90;;;;;;5132053;27;20225;-81
2023/10/21 06:55:27;;;;;;;19.27;13.20;;;9.70;99.90;;;;;;5131013;27;20196;-80
2023/10/21 06:57:54;;;;;;;19.60;13.40;;;9.80;99.90;;;;;;5129490;27;20209;-80
2023/10/21 07:00:21;;;;;;;19.93;13.80;;;9.80;99.90;;;;;;5128646;27;20216;-80
2023/10/21 07:02:47;;;;;;;22.70;15.43;;;9.80;99.90;;;;;;5121777;27;20576;-80
2023/10/21 07:05:15;;;;;;;20.23;13.73;;;9.80;99.90;;;;;;5122709;27;20229;-81
2023/10/21 07:07:43;;;;;;;22.30;13.70;;;9.90;99.90;;;;;;5126498;27;20685;-81
2023/10/21 07:10:10;;;;;;;19.67;12.90;;;9.90;99.90;;;;;;5128744;27;20231;-81
2023/10/21 07:12:38;;;;;;;20.10;13.70;;;9.90;99.90;;;;;;5123863;27;20208;-80
2023/10/21 07:15:07;;;;;;;19.07;12.43;;;10.00;99.90;;;;;;5123438;27;20208;-80
2023/10/21 07:17:34;;;;;;;19.37;12.67;;;10.00;99.90;;;;;;5130055;27;20646;-80
2023/10/21 07:20:01;;;;;;;20.43;12.80;;;10.10;99.90;;;;;;5133425;27;20220;-80
2023/10/21 07:22:28;;;;;;;18.43;13.40;;;10.00;99.90;;;;;;5127145;27;20196;-80
2023/10/21 07:24:57;;;;;;;19.10;13.20;;;10.00;99.90;;;;;;5128980;27;20211;-80
2023/10/21 07:27:24;;;;;;;18.33;12.40;;;10.00;99.90;;;;;;5127199;27;20239;-80
2023/10/21 07:29:51;;;;;;;18.53;12.40;;;10.10;99.90;;;;;;5126660;27;20220;-80
2023/10/21 07:32:18;;;;;;;19.37;14.13;;;10.10;99.90;;;;;;5136655;27;20203;-80
2023/10/21 07:34:45;;;;;;;16.90;11.53;;;10.20;99.90;;;;;;5133536;28;20207;-81
2023/10/21 07:37:13;;;;;;;18.63;12.40;;;10.20;99.90;;;;;;5131471;28;20218;-81
2023/10/21 07:39:39;;;;;;;18.17;12.57;;;10.30;99.90;;;;;;5129893;28;20235;-80
2023/10/21 07:42:08;;;;;;;16.03;11.93;;;10.30;99.90;;;;;;5128334;28;20650;-80
2023/10/21 07:44:35;;;;;;;18.83;13.20;;;10.30;99.90;;;;;;5133793;28;20200;-81
2023/10/21 07:47:02;;;;;;;18.17;13.83;;;10.30;99.90;;;;;;5127135;28;20223;-80
2023/10/21 07:49:29;;;;;;;16.73;12.17;;;10.30;99.90;;;;;;5123647;28;20221;-78
2023/10/21 07:51:56;;;;;;;18.23;12.70;;;10.40;99.90;;;;;;5130240;27;20219;-80
2023/10/21 07:54:23;;;;;;;18.03;12.53;;;10.40;99.90;;;;;;5128288;28;20203;-81
2023/10/21 07:56:52;;;;;;;18.03;12.20;;;10.40;99.90;;;;;;5126010;28;20570;-81
2023/10/21 07:59:20;;;;;;;22.33;14.10;;;10.30;99.90;;;;;;5132162;28;20247;-81
2023/10/21 08:01:47;;;;;;;17.67;12.13;;;10.30;99.90;;;;;;5130143;28;20307;-81
2023/10/21 08:04:14;;;;;;;18.07;12.47;;;10.30;99.90;;;;;;5133720;28;20205;-81
2023/10/21 08:06:43;;;;;;;18.50;13.67;;;10.40;99.90;;;;;;5135950;28;20230;-81
2023/10/21 08:09:14;;;;;;;17.27;12.70;;;10.40;99.90;;;;;;5125039;28;20217;-82
2023/10/21 08:11:41;;;;;;;17.43;11.27;;;10.40;99.90;;;;;;5131412;28;20199;-81
2023/10/21 08:14:08;;;;;;;16.30;12.17;;;10.50;99.90;;;;;;5135360;28;20208;-80
2023/10/21 08:16:36;;;;;;;16.97;11.87;;;10.60;99.90;;;;;;5125821;27;20207;-81
2023/10/21 08:19:04;;;;;;;18.07;12.07;;;10.60;99.90;;;;;;5131400;28;20221;-79
2023/10/21 08:21:33;;;;;;;16.23;12.00;;;10.60;99.90;;;;;;5128877;27;20224;-81
2023/10/21 08:24:02;;;;;;;18.07;12.57;;;10.70;99.90;;;;;;5134348;28;20197;-81
2023/10/21 08:26:29;;;;;;;16.70;12.80;;;10.70;99.90;;;;;;5129750;27;20204;-80
2023/10/21 08:28:56;;;;;;;19.77;13.67;;;10.90;99.90;;;;;;5130217;28;20265;-81
2023/10/21 08:31:24;;;;;;;16.53;11.97;;;11.00;99.90;;;;;;5131305;28;20193;-80
2023/10/21 08:33:52;;;;;;;13.40;9.73;;;11.30;99.90;;;;;;5130683;28;20215;-82
2023/10/21 08:36:20;;;;;;;5.73;5.10;;;11.40;99.90;;;;;;5126924;28;20223;-81
2023/10/21 08:38:48;;;;;;;6.27;4.53;;;12.10;99.90;;;;;;5127411;27;20256;-79
2023/10/21 08:41:15;;;;;;;5.87;4.70;;;12.40;99.90;;;;;;5130883;27;20216;-80
2023/10/21 08:43:47;;;;;;;8.27;6.23;;;12.70;99.90;;;;;;5133814;27;20201;-82
2023/10/21 08:46:15;;;;;;;5.40;4.77;;;12.70;99.90;;;;;;5137172;27;20201;-81
2023/10/21 08:48:44;;;;;;;3.87;3.40;;;13.00;99.90;;;;;;5141546;27;20230;-81
2023/10/21 08:51:16;;;;;;;4.10;2.90;;;13.10;99.90;;;;;;5133689;27;20204;-82
2023/10/21 08:53:46;;;;;;;4.20;2.83;;;13.20;99.90;;;;;;5131880;27;20227;-81
2023/10/21 08:56:13;;;;;;;3.30;2.70;;;13.40;99.90;;;;;;5138971;27;20220;-81
2023/10/21 08:58:40;;;;;;;3.33;2.77;;;13.50;99.90;;;;;;5134733;27;20207;-82
2023/10/21 09:01:07;;;;;;;2.93;2.40;;;13.70;99.90;;;;;;5134057;27;20220;-82
2023/10/21 09:03:34;;;;;;;5.17;2.33;;;13.90;99.90;;;;;;5135513;27;20211;-82
2023/10/21 09:06:10;;;;;;;3.33;1.83;;;14.00;99.90;;;;;;5133808;27;20207;-83
2023/10/21 09:08:40;;;;;;;3.17;2.37;;;13.90;99.90;;;;;;5136067;27;20210;-82
2023/10/21 09:11:08;;;;;;;3.07;2.00;;;13.90;99.90;;;;;;5136460;27;20280;-83
2023/10/21 09:13:36;;;;;;;2.78;1.88;;;13.90;99.90;;;;;;5129433;27;20554;-81
2023/10/21 09:16:04;;;;;;;2.43;1.90;;;14.00;99.90;;;;;;5137730;27;20196;-84
2023/10/21 09:18:34;;;;;;;2.37;1.87;;;14.20;99.90;;;;;;5130478;27;20273;-81
2023/10/21 09:21:02;;;;;;;2.40;2.20;;;14.10;99.90;;;;;;5132105;27;20223;-81
2023/10/21 09:23:29;;;;;;;2.93;2.30;;;14.20;99.90;;;;;;5133747;27;20575;-81
2023/10/21 09:25:59;;;;;;;2.37;2.17;;;14.30;99.90;;;;;;5129879;27;20217;-81
2023/10/21 09:28:26;;;;;;;4.15;2.70;;;14.50;99.90;;;;;;5133548;27;20204;-81
2023/10/21 09:30:57;;;;;;;3.75;2.90;;;14.60;99.90;;;;;;5127582;27;20303;-82
2023/10/21 09:33:25;;;;;;;4.00;2.90;;;14.70;99.90;;;;;;5129304;27;20539;-81
2023/10/21 09:36:04;;;;;;;3.53;3.20;;;14.90;99.90;;;;;;5128236;27;20204;-81
2023/10/21 09:38:37;;;;;;;4.20;2.78;;;15.20;99.90;;;;;;5127079;27;20200;-81
2023/10/21 09:41:09;;;;;;;3.50;2.20;;;15.10;99.90;;;;;;5130284;27;20211;-82
2023/10/21 09:43:40;;;;;;;2.70;1.65;;;15.10;99.90;;;;;;5130744;27;20201;-81
2023/10/21 09:46:11;;;;;;;2.90;1.67;;;15.10;99.90;;;;;;5132274;27;20205;-81
2023/10/21 09:48:42;;;;;;;2.13;1.00;;;15.00;99.90;;;;;;5127664;27;20729;-80
2023/10/21 09:51:12;;;;;;;1.25;1.15;;;14.90;99.90;;;;;;5131983;27;20410;-80
2023/10/21 09:53:42;;;;;;;3.53;1.00;;;15.00;99.90;;;;;;5129505;27;20209;-81
2023/10/21 09:56:14;;;;;;;1.77;1.10;;;15.10;99.90;;;;;;5121771;27;20239;-81
2023/10/21 09:58:43;;;;;;;1.83;0.88;;;15.00;99.90;;;;;;5123495;27;20650;-81
2023/10/21 10:01:12;;;;;;;3.35;1.50;;;15.20;99.90;;;;;;5125468;27;20236;-80
2023/10/21 10:03:42;;;;;;;0.85;0.85;;;15.20;99.90;;;;;;5123930;27;20208;-81
2023/10/21 10:06:10;;;;;;;1.88;1.15;;;15.30;99.90;;;;;;5125291;27;20630;-81
2023/10/21 10:08:37;;;;;;;1.08;1.02;;;15.20;99.90;;;;;;5123702;27;20200;-82
2023/10/21 10:11:13;;;;;;;2.55;1.00;;;15.20;99.90;;;;;;5131357;27;20292;-81
2023/10/21 10:13:46;;;;;;;0.98;0.85;;;15.20;99.90;;;;;;5129785;27;20234;-81
2023/10/21 10:16:25;;;;;;;1.27;1.10;;;15.20;99.90;;;;;;5132482;27;20283;-81
2023/10/21 10:18:52;;;;;;;2.03;1.33;;;15.40;99.90;;;;;;5123138;27;20224;-81
2023/10/21 10:21:20;;;;;;;0.93;0.90;;;15.60;99.90;;;;;;5131274;27;20230;-81
2023/10/21 10:23:51;;;;;;;2.10;0.60;;;15.80;99.90;;;;;;5137435;27;20207;-81
2023/10/21 10:26:33;;;;;;;0.75;0.52;;;15.90;99.90;;;;;;5136416;27;20205;-82
2023/10/21 10:29:00;;;;;;;1.95;0.63;;;16.40;99.90;;;;;;5121575;27;20548;-82
2023/10/21 10:31:29;;;;;;;2.15;0.88;;;16.90;99.90;;;;;;5135468;27;20203;-82
2023/10/21 10:33:56;;;;;;;0.60;0.60;;;17.00;99.90;;;;;;5136796;27;20609;-81
2023/10/21 10:36:29;;;;;;;0.45;0.45;;;17.20;99.90;;;;;;5128560;27;20229;-80
2023/10/21 10:38:56;;;;;;;0.47;0.47;;;16.80;99.90;;;;;;5117412;28;20724;-80
2023/10/21 10:41:23;;;;;;;2.72;1.05;;;16.50;99.90;;;;;;5137542;27;20577;-80
2023/10/21 10:43:54;;;;;;;1.67;0.60;;;16.50;99.90;;;;;;5116115;28;20213;-81
2023/10/21 10:46:22;;;;;;;1.92;0.60;;;16.40;99.90;;;;;;5132962;27;20204;-81
2023/10/21 10:48:49;;;;;;;2.92;1.45;;;16.40;99.90;;;;;;5125572;27;20637;-82
2023/10/21 10:51:17;;;;;;;0.73;0.70;;;16.80;99.90;;;;;;5126759;27;20559;-82
2023/10/21 10:53:46;;;;;;;1.65;0.60;;;17.20;99.90;;;;;;5136449;27;20573;-82
2023/10/21 10:56:18;;;;;;;1.17;0.60;;;17.80;99.90;;;;;;5135790;27;20213;-82
2023/10/21 10:58:46;;;;;;;1.08;0.73;;;18.00;99.90;;;;;;5126416;27;20268;-82
2023/10/21 11:01:26;;;;;;;0.70;0.70;;;18.00;99.90;;;;;;5115791;28;20213;-81
2023/10/21 11:03:56;;;;;;;1.75;0.50;;;18.10;99.90;;;;;;5123999;27;20189;-81
2023/10/21 11:06:23;;;;;;;0.60;0.50;;;18.30;99.90;;;;;;5119328;27;20192;-81
2023/10/21 11:08:50;;;;;;;1.75;0.60;;;18.20;99.90;;;;;;5121822;27;20235;-80
2023/10/21 11:11:17;;;;;;;2.25;0.95;;;18.20;99.90;;;;;;5130325;27;20260;-80
2023/10/21 11:13:44;;;;;;;1.73;0.63;;;18.30;99.90;;;;;;5128885;27;20203;-81
2023/10/21 11:16:11;;;;;;;2.72;0.93;;;18.20;99.90;;;;;;5132758;27;20204;-79
2023/10/21 11:18:40;;;;;;;1.35;0.80;;;18.40;99.90;;;;;;5139300;27;20283;-81
2023/10/21 11:21:07;;;;;;;0.45;0.45;;;18.30;99.90;;;;;;5136953;27;20224;-82
2023/10/21 11:23:36;;;;;;;0.40;0.32;;;18.50;99.90;;;;;;5129427;27;20240;-80
2023/10/21 11:26:07;;;;;;;1.50;0.65;;;18.70;99.90;;;;;;5129814;27;20200;-81
2023/10/21 11:28:36;;;;;;;0.70;0.68;;;18.40;99.90;;;;;;5119804;27;20205;-81
2023/10/21 11:31:03;;;;;;;0.40;0.30;;;18.10;99.90;;;;;;5130698;27;20276;-79
2023/10/21 11:33:30;;;;;;;0.47;0.47;;;17.90;99.90;;;;;;5123441;27;20197;-80
2023/10/21 11:35:59;;;;;;;1.02;0.50;;;17.70;99.90;;;;;;5117471;28;20580;-80
2023/10/21 11:38:28;;;;;;;1.65;0.40;;;17.60;99.90;;;;;;5123987;28;20204;-81
2023/10/21 11:40:55;;;;;;;2.95;1.10;;;17.40;99.90;;;;;;5136485;28;20224;-80
2023/10/21 11:43:25;;;;;;;2.22;0.70;;;17.50;99.90;;;;;;5137571;27;20216;-81
2023/10/21 11:45:55;;;;;;;1.48;0.68;;;17.50;99.90;;;;;;5138736;28;20230;-80
2023/10/21 11:48:24;;;;;;;1.30;0.77;;;17.40;99.90;;;;;;5137929;27;20287;-83
2023/10/21 11:50:52;;;;;;;3.40;0.70;;;17.40;99.90;;;;;;5134655;27;20224;-82
2023/10/21 11:53:20;;;;;;;2.10;0.88;;;17.30;99.90;;;;;;5128314;27;20227;-82
2023/10/21 12:26:55;;;;;;;0.73;0.70;;;21.10;99.90;;;;;;5111377;28;20623;-82
2023/10/21 12:32:43;;;;;;;1.77;0.50;;;21.50;99.90;;;;;;5080150;28;20198;-82
2023/10/21 12:35:35;;;;;;;0.88;0.50;;;21.60;99.90;;;;;;5074846;28;20208;-83
2023/10/21 12:40:59;;;;;;;0.22;0.22;;;18.70;99.90;;;;;;5136568;27;20261;-82
2023/10/21 12:43:34;;;;;;;0.20;0.20;;;18.20;99.90;;;;;;5137796;27;20196;-81
2023/10/21 12:46:14;;;;;;;0.50;0.50;;;17.80;99.90;;;;;;5137445;27;20195;-82
2023/10/21 12:48:42;;;;;;;0.85;0.85;;;17.40;99.90;;;;;;5138036;27;20456;-82
2023/10/21 12:51:14;;;;;;;0.75;0.75;;;17.40;99.90;;;;;;5137970;27;20650;-82
2023/10/21 12:53:40;;;;;;;0.75;0.75;;;17.40;99.90;;;;;;5137640;27;20243;-82
2023/10/21 12:56:07;;;;;;;1.85;0.93;;;18.20;99.90;;;;;;5137731;27;20193;-82
2023/10/21 12:58:35;;;;;;;1.30;0.70;;;17.90;99.90;;;;;;5137394;27;20211;-82
2023/10/21 13:01:04;;;;;;;0.40;0.40;;;17.90;99.90;;;;;;5115544;27;20193;-82
2023/10/21 13:03:31;;;;;;;0.45;0.40;;;18.50;99.90;;;;;;5134000;27;20306;-82
2023/10/21 13:05:58;;;;;;;0.93;0.30;;;19.80;99.90;;;;;;5138537;27;20202;-82
2023/10/21 13:08:25;;;;;;;0.98;0.30;;;20.60;99.90;;;;;;5139098;27;20281;-82
2023/10/21 13:10:55;;;;;;;2.22;0.30;;;19.60;99.90;;;;;;5138497;27;20231;-82
2023/10/21 13:13:23;;;;;;;0.45;0.20;;;18.80;99.90;;;;;;5138309;27;20291;-82
2023/10/21 13:15:51;;;;;;;0.82;0.30;;;18.70;99.90;;;;;;5137786;27;20288;-83
2023/10/21 13:18:19;;;;;;;0.57;0.30;;;18.50;99.90;;;;;;5137984;27;20610;-82
2023/10/21 13:20:46;;;;;;;0.10;0.10;;;18.20;99.90;;;;;;5137894;27;20228;-82